Time;durP1;ratioP1;P1;durP2;ratioP2;P2;SDS_P1;SDS_P2;PMS_P1;PMS_P2;Temp;Humidity;BMP_temperature;BMP_pressure;BME280_temperature;BME280_humidity;BME280_pressure;Samples;Min_cycle;Max_cycle;Signal;HPM_P1;HPM_P2
2023/02/07 00:01:41;;;;;;;8.30;5.68;;;;;;;-3.64;60.91;95926.06;4218721;28;20422;-43
2023/02/07 00:03:43;;;;;;;11.32;6.32;;;;;;;-3.60;60.90;95933.63;4210830;28;20083;-43
2023/02/07 00:05:45;;;;;;;11.68;6.88;;;;;;;-3.69;61.35;95928.75;4224606;28;20136;-43
2023/02/07 00:07:47;;;;;;;9.52;6.20;;;;;;;-3.96;61.93;95940.59;4211146;28;20048;-43
2023/02/07 00:09:49;;;;;;;9.63;6.72;;;;;;;-4.04;62.21;95932.28;4211398;28;20219;-43
2023/02/07 00:11:51;;;;;;;15.30;8.88;;;;;;;-3.94;62.35;95933.72;4211201;28;20051;-44
2023/02/07 00:13:54;;;;;;;11.07;6.47;;;;;;;-3.77;62.24;95936.66;4213047;28;20490;-44
2023/02/07 00:15:56;;;;;;;9.43;6.03;;;;;;;-3.57;62.43;95941.25;4225562;28;20051;-45
2023/02/07 00:17:58;;;;;;;11.45;6.70;;;;;;;-3.43;61.71;95937.44;4227380;28;20058;-43
2023/02/07 01:21:20;;;;;;;9.35;6.63;;;;;;;-3.57;62.56;95955.75;4218414;27;20382;-58
2023/02/07 01:23:22;;;;;;;9.52;6.65;;;;;;;-3.47;62.04;95949.47;4209590;28;20079;-60
2023/02/07 01:25:24;;;;;;;10.45;6.43;;;;;;;-3.40;62.73;95950.16;4213566;28;20127;-60
2023/02/07 01:27:25;;;;;;;10.00;6.45;;;;;;;-3.25;61.97;95959.13;4226255;28;20047;-59
2023/02/07 01:29:27;;;;;;;8.30;5.95;;;;;;;-3.17;61.21;95947.75;4225664;28;20052;-59
2023/02/07 01:31:29;;;;;;;9.77;5.57;;;;;;;-3.00;61.09;95937.00;4224902;28;20083;-60
2023/02/07 01:33:31;;;;;;;9.25;5.82;;;;;;;-2.96;60.79;95930.88;4211287;28;20044;-60
2023/02/07 01:35:32;;;;;;;12.20;6.47;;;;;;;-3.02;60.26;95936.19;4224556;28;20071;-61
2023/02/07 01:37:34;;;;;;;10.15;6.50;;;;;;;-2.96;61.05;95938.56;4217944;28;20045;-60
2023/02/07 01:39:36;;;;;;;10.73;6.80;;;;;;;-2.93;61.00;95932.50;4221374;28;20089;-51
2023/02/07 01:41:37;;;;;;;9.65;6.13;;;;;;;-2.91;60.35;95929.00;4222481;28;20515;-51
2023/02/07 01:44:00;;;;;;;10.10;5.45;;;;;;;-2.82;60.36;95929.63;4209533;28;20052;-55
2023/02/07 01:46:02;;;;;;;8.98;5.60;;;;;;;-2.75;60.48;95931.94;4221455;28;20055;-56
2023/02/07 01:48:08;;;;;;;10.13;5.88;;;;;;;-2.86;59.54;95931.47;4223603;28;20047;-56
2023/02/07 01:50:09;;;;;;;7.88;5.47;;;;;;;-2.89;60.09;95928.97;4217619;28;20097;-55
2023/02/07 01:52:15;;;;;;;10.60;6.20;;;;;;;-2.87;60.67;95929.75;4223706;28;20492;-53
2023/02/07 01:54:17;;;;;;;8.52;5.55;;;;;;;-2.76;60.46;95932.00;4222990;28;20048;-56
2023/02/07 01:56:19;;;;;;;10.13;5.70;;;;;;;-2.75;59.62;95929.38;4222758;28;20056;-54
2023/02/07 01:58:33;;;;;;;9.90;6.20;;;;;;;-2.72;59.79;95931.00;4221342;28;20148;-54
2023/02/07 02:00:35;;;;;;;10.38;6.18;;;;;;;-2.73;60.01;95937.00;4212295;28;20035;-54
2023/02/07 02:02:37;;;;;;;9.43;5.47;;;;;;;-2.70;60.13;95937.75;4224574;28;20048;-55
2023/02/07 02:04:39;;;;;;;10.23;6.03;;;;;;;-2.73;59.50;95937.00;4225226;28;20040;-55
2023/02/07 02:06:42;;;;;;;11.20;6.22;;;;;;;-2.76;59.49;95939.69;4225552;28;20044;-53
2023/02/07 02:08:43;;;;;;;10.85;5.95;;;;;;;-3.03;60.07;95942.22;4225477;28;20101;-56
2023/02/07 02:11:03;;;;;;;10.98;6.22;;;;;;;-2.97;60.74;95938.63;4218502;28;20048;-54
2023/02/07 02:13:17;;;;;;;9.23;5.50;;;;;;;-2.91;60.50;95931.56;4224102;28;20561;-54
2023/02/07 02:15:19;;;;;;;11.27;5.65;;;;;;;-2.79;60.99;95939.78;4224533;28;20059;-55
2023/02/07 02:17:37;;;;;;;10.80;5.38;;;;;;;-2.66;60.45;95941.09;4214662;28;20080;-53
2023/02/07 02:20:17;;;;;;;11.38;5.88;;;;;;;-2.52;60.16;95936.34;4208413;28;20045;-50
2023/02/07 02:22:28;;;;;;;8.65;5.28;;;;;;;-2.45;58.90;95942.13;4190487;28;20057;-54
2023/02/07 02:24:43;;;;;;;7.30;5.22;;;;;;;-2.40;58.84;95939.41;4208745;28;20105;-55
2023/02/07 02:27:00;;;;;;;6.70;5.22;;;;;;;-2.38;58.49;95937.63;4211324;28;20125;-52
2023/02/07 02:29:46;;;;;;;9.40;5.72;;;;;;;-2.36;58.07;95948.69;4214026;28;20067;-53
2023/02/07 02:32:02;;;;;;;9.02;5.20;;;;;;;-2.38;58.09;95945.31;4158763;28;20046;-53
2023/02/07 02:34:12;;;;;;;10.25;5.95;;;;;;;-2.60;58.23;95943.47;4196375;28;20509;-55
2023/02/07 02:36:32;;;;;;;9.30;5.75;;;;;;;-2.55;58.71;95946.69;4212326;28;20052;-52
2023/02/07 02:38:39;;;;;;;12.02;6.60;;;;;;;-2.89;59.21;95931.53;4201226;28;20078;-57
2023/02/07 02:41:06;;;;;;;10.10;6.47;;;;;;;-3.03;60.13;95947.34;4212895;28;20090;-55
2023/02/07 02:43:20;;;;;;;8.88;5.68;;;;;;;-3.06;60.35;95947.44;4200711;28;20044;-58
2023/02/07 02:45:29;;;;;;;8.52;5.30;;;;;;;-2.94;60.71;95946.22;4212522;28;20106;-53
2023/02/07 02:47:31;;;;;;;9.25;5.95;;;;;;;-2.86;59.96;95951.09;4212920;28;20052;-54
2023/02/07 02:49:33;;;;;;;12.85;6.43;;;;;;;-2.89;59.15;95952.88;4212752;28;20454;-55
2023/02/07 02:51:35;;;;;;;11.43;6.43;;;;;;;-3.16;60.36;95962.25;4204616;28;20075;-55
2023/02/07 02:53:37;;;;;;;8.60;5.32;;;;;;;-3.50;60.79;95960.66;4196778;28;20052;-57
2023/02/07 02:55:56;;;;;;;11.27;6.50;;;;;;;-3.65;61.36;95958.53;4209279;28;20048;-55
2023/02/07 02:58:26;;;;;;;11.45;5.47;;;;;;;-3.78;62.01;95965.72;4213952;28;20478;-54
2023/02/07 03:00:32;;;;;;;9.77;5.63;;;;;;;-3.81;61.54;95964.94;4213126;28;20070;-57
2023/02/07 03:02:58;;;;;;;9.80;5.65;;;;;;;-3.82;62.29;95968.41;4213588;28;20051;-55
2023/02/07 03:05:22;;;;;;;8.73;5.85;;;;;;;-3.84;62.17;95973.56;4213440;28;20040;-55
2023/02/07 03:07:35;;;;;;;12.43;6.53;;;;;;;-3.81;62.05;95963.22;4211106;28;20046;-54
2023/02/07 03:10:12;;;;;;;11.25;6.55;;;;;;;-3.80;61.54;95969.19;4210576;28;20339;-60
2023/02/07 03:12:48;;;;;;;9.30;6.00;;;;;;;-4.02;61.81;95974.88;4211804;28;20044;-59
2023/02/07 03:14:58;;;;;;;12.10;7.13;;;;;;;-4.04;62.68;95974.09;4198739;28;20052;-60
2023/02/07 03:17:24;;;;;;;10.48;6.15;;;;;;;-4.09;62.30;95975.06;4201448;28;20050;-61
2023/02/07 03:19:35;;;;;;;12.43;7.35;;;;;;;-3.98;62.09;95967.94;4204252;28;20053;-61
2023/02/07 03:21:46;;;;;;;12.80;7.28;;;;;;;-3.94;62.63;95967.84;4197641;28;20080;-59
2023/02/07 03:23:51;;;;;;;11.38;6.55;;;;;;;-3.79;61.91;95968.31;4196068;28;20210;-61
2023/02/07 03:25:55;;;;;;;10.55;6.30;;;;;;;-3.63;61.94;95963.63;4207582;28;20048;-60
2023/02/07 03:27:57;;;;;;;10.18;6.68;;;;;;;-3.62;61.71;95967.84;4208905;28;20048;-60
2023/02/07 03:30:02;;;;;;;9.77;6.38;;;;;;;-3.61;61.74;95964.41;4202810;28;20696;-62
2023/02/07 03:32:06;;;;;;;9.80;6.00;;;;;;;-3.56;61.12;95960.84;4213251;28;20052;-58
2023/02/07 03:34:10;;;;;;;10.48;6.38;;;;;;;-3.42;60.82;95957.91;4211111;28;20497;-60
2023/02/07 03:36:20;;;;;;;9.10;5.25;;;;;;;-3.36;60.78;95965.38;4206838;28;20071;-62
2023/02/07 03:38:22;;;;;;;9.50;5.82;;;;;;;-3.51;60.09;95959.00;4204477;28;20101;-60
2023/02/07 03:40:26;;;;;;;8.63;5.40;;;;;;;-3.42;60.65;95964.72;4197869;28;20045;-62
2023/02/07 03:42:40;;;;;;;10.88;6.47;;;;;;;-3.32;60.35;95964.41;4199822;28;20416;-60
2023/02/07 03:44:42;;;;;;;9.50;5.63;;;;;;;-3.17;60.24;95962.28;4211965;28;20048;-56
2023/02/07 03:46:44;;;;;;;9.18;6.03;;;;;;;-3.03;59.94;95965.31;4211726;28;20052;-53
2023/02/07 03:48:45;;;;;;;8.98;5.20;;;;;;;-2.99;59.38;95964.31;4210903;28;20638;-61
2023/02/07 03:50:50;;;;;;;8.40;5.43;;;;;;;-2.92;59.80;95962.41;4201829;28;20040;-56
2023/02/07 03:52:52;;;;;;;9.73;5.80;;;;;;;-2.81;59.60;95964.66;4213144;28;20048;-55
2023/02/07 03:54:54;;;;;;;8.50;5.25;;;;;;;-3.04;58.50;95957.66;4199754;28;20093;-53
2023/02/07 03:56:55;;;;;;;8.45;4.97;;;;;;;-3.06;58.68;95959.41;4208037;28;20060;-51
2023/02/07 03:58:57;;;;;;;8.60;5.80;;;;;;;-3.06;59.43;95959.41;4203116;28;20477;-53
2023/02/07 04:00:58;;;;;;;9.75;5.75;;;;;;;-3.01;58.94;95957.53;4203990;28;20048;-52
2023/02/07 04:03:01;;;;;;;9.10;5.68;;;;;;;-2.88;58.92;95959.72;4207533;28;20048;-52
2023/02/07 04:05:02;;;;;;;9.32;6.25;;;;;;;-2.73;59.39;95966.09;4199478;28;20052;-53
2023/02/07 04:07:04;;;;;;;10.98;5.68;;;;;;;-2.68;58.54;95961.66;4196074;28;20052;-56
2023/02/07 04:09:06;;;;;;;10.40;5.55;;;;;;;-2.76;57.88;95955.91;4196365;28;20052;-52
2023/02/07 04:11:09;;;;;;;8.45;5.45;;;;;;;-3.01;57.90;95966.09;4200773;28;20048;-53
2023/02/07 04:13:11;;;;;;;12.65;7.20;;;;;;;-3.27;59.22;95966.00;4212928;28;20048;-56
2023/02/07 04:15:13;;;;;;;15.90;8.52;;;;;;;-3.39;60.21;95968.03;4212729;28;20093;-58
2023/02/07 04:17:14;;;;;;;13.23;8.07;;;;;;;-3.33;60.22;95952.50;4212692;28;20071;-56
2023/02/07 04:19:16;;;;;;;13.18;7.28;;;;;;;-3.23;59.83;95949.66;4212048;28;20047;-54
2023/02/07 04:21:18;;;;;;;14.13;7.70;;;;;;;-3.09;59.90;95955.22;4212267;28;20093;-54
2023/02/07 04:23:19;;;;;;;14.32;8.65;;;;;;;-2.90;59.45;95953.78;4211317;28;20493;-54
2023/02/07 04:25:21;;;;;;;15.60;7.90;;;;;;;-3.07;59.26;95955.19;4211423;28;20130;-53
2023/02/07 04:27:23;;;;;;;14.00;7.25;;;;;;;-3.71;60.66;95964.66;4212411;28;20047;-56
2023/02/07 04:29:25;;;;;;;13.15;8.07;;;;;;;-4.17;61.88;95968.44;4212188;28;20047;-55
2023/02/07 04:31:27;;;;;;;11.65;7.18;;;;;;;-4.39;62.59;95972.41;4212053;28;20097;-55
2023/02/07 04:33:29;;;;;;;14.30;7.80;;;;;;;-4.43;62.83;95966.53;4210215;28;20528;-54
2023/02/07 04:35:30;;;;;;;16.40;7.70;;;;;;;-4.22;63.47;95965.13;4212170;28;20060;-53
2023/02/07 04:37:32;;;;;;;11.55;7.90;;;;;;;-4.13;62.80;95970.03;4212067;28;20052;-54
2023/02/07 04:39:34;;;;;;;13.20;8.07;;;;;;;-4.16;62.31;95974.38;4212188;28;20040;-56
2023/02/07 04:41:35;;;;;;;13.30;8.05;;;;;;;-4.07;62.49;95973.31;4210691;28;20077;-53
2023/02/07 04:43:37;;;;;;;14.43;8.70;;;;;;;-4.16;62.46;95975.22;4211467;28;20052;-57
2023/02/07 04:45:39;;;;;;;14.85;8.50;;;;;;;-4.25;62.97;95972.91;4211341;28;20056;-56
2023/02/07 04:47:41;;;;;;;17.95;10.60;;;;;;;-4.19;63.31;95979.59;4210489;28;20131;-54
2023/02/07 04:49:43;;;;;;;13.18;8.40;;;;;;;-4.27;63.04;95978.94;4211249;28;20044;-53
2023/02/07 04:51:44;;;;;;;12.98;8.07;;;;;;;-4.12;63.21;95970.88;4210903;28;20105;-57
2023/02/07 04:53:46;;;;;;;13.93;8.15;;;;;;;-3.89;63.54;95980.53;4211267;28;20058;-54
2023/02/07 04:55:52;;;;;;;13.65;8.52;;;;;;;-3.67;62.04;95977.41;4209810;28;20480;-56
2023/02/07 04:57:53;;;;;;;14.93;8.93;;;;;;;-3.94;62.35;95988.34;4211478;28;20505;-55
2023/02/07 04:59:55;;;;;;;12.95;8.77;;;;;;;-4.48;63.77;95998.22;4210878;28;20048;-52
2023/02/07 05:01:57;;;;;;;14.32;9.02;;;;;;;-4.64;64.50;95996.00;4212132;28;20040;-52
2023/02/07 05:03:58;;;;;;;14.20;10.13;;;;;;;-4.67;65.26;96005.47;4211007;28;20111;-58
2023/02/07 05:06:00;;;;;;;17.00;10.73;;;;;;;-4.77;65.48;96004.84;4204427;28;20405;-54
2023/02/07 05:08:01;;;;;;;13.73;9.95;;;;;;;-4.76;65.81;96004.78;4202602;28;20051;-56
2023/02/07 05:10:04;;;;;;;16.40;11.00;;;;;;;-4.73;65.65;96006.47;4202040;28;20438;-57
2023/02/07 05:12:06;;;;;;;19.40;10.93;;;;;;;-4.68;65.37;96002.06;4194561;28;20048;-56
2023/02/07 05:14:07;;;;;;;17.48;11.73;;;;;;;-4.65;65.87;96008.81;4211861;28;20137;-56
2023/02/07 05:16:09;;;;;;;15.57;11.07;;;;;;;-4.59;65.48;96012.09;4211050;28;20157;-56
2023/02/07 05:18:11;;;;;;;16.95;11.45;;;;;;;-4.48;65.42;96004.16;4211915;28;20063;-56
2023/02/07 05:20:12;;;;;;;25.05;15.73;;;;;;;-4.69;65.43;96007.22;4210598;28;20052;-54
2023/02/07 05:22:14;;;;;;;30.23;17.83;;;;;;;-4.53;66.03;96000.88;4195602;28;20055;-57
2023/02/07 05:24:16;;;;;;;30.15;19.67;;;;;;;-4.67;65.36;96008.84;4203667;28;20098;-54
2023/02/07 05:26:17;;;;;;;28.77;17.98;;;;;;;-4.69;65.32;96013.16;4197371;28;20639;-57
2023/02/07 05:28:19;;;;;;;23.65;14.85;;;;;;;-4.78;65.49;96015.94;4200265;28;20048;-55
2023/02/07 05:30:21;;;;;;;24.73;13.80;;;;;;;-4.76;65.49;96021.84;4195315;28;20056;-59
2023/02/07 05:34:43;;;;;;;16.90;10.73;;;;;;;-4.82;65.58;96027.09;4201106;28;20109;-57
2023/02/07 05:36:45;;;;;;;21.75;12.43;;;;;;;-4.66;65.41;96022.50;4210341;28;20056;-54
2023/02/07 05:38:47;;;;;;;17.38;11.65;;;;;;;-4.40;65.29;96019.34;4199965;28;20053;-57
2023/02/07 05:40:48;;;;;;;17.15;10.93;;;;;;;-4.11;65.19;96013.50;4207488;28;20540;-57
2023/02/07 05:42:50;;;;;;;18.85;11.98;;;;;;;-3.85;63.99;96024.78;4201587;28;20734;-57
2023/02/07 05:44:52;;;;;;;19.85;11.63;;;;;;;-3.68;62.99;96027.75;4211400;28;20068;-59
2023/02/07 05:46:54;;;;;;;21.08;13.02;;;;;;;-3.60;62.19;96030.94;4211941;28;20074;-58
2023/02/07 05:48:55;;;;;;;23.20;13.88;;;;;;;-3.46;62.41;96038.28;4210884;28;21793;-58
2023/02/07 05:50:57;;;;;;;21.20;13.30;;;;;;;-3.36;61.73;96031.16;4211357;28;20040;-58
2023/02/07 05:53:00;;;;;;;22.85;13.82;;;;;;;-3.36;61.56;96034.56;4211938;28;20578;-58
2023/02/07 05:55:03;;;;;;;19.63;11.90;;;;;;;-3.77;61.76;96043.38;4212067;28;20450;-59
2023/02/07 05:57:04;;;;;;;21.63;13.32;;;;;;;-4.31;63.71;96042.13;4211645;28;20059;-58
2023/02/07 05:59:06;;;;;;;18.98;11.73;;;;;;;-4.55;63.96;96046.94;4213758;28;20056;-55
2023/02/07 06:01:08;;;;;;;23.85;13.13;;;;;;;-4.74;65.06;96043.94;4213327;28;20489;-55
2023/02/07 06:03:09;;;;;;;23.48;13.18;;;;;;;-4.47;64.95;96044.22;4208868;28;20088;-56
2023/02/07 06:05:16;;;;;;;23.83;13.18;;;;;;;-4.26;64.20;96044.56;4203649;28;20079;-57
2023/02/07 06:07:17;;;;;;;19.95;11.82;;;;;;;-4.32;63.25;96040.47;4214181;28;20074;-58
2023/02/07 06:09:20;;;;;;;20.55;13.30;;;;;;;-4.13;63.63;96035.72;4204967;28;20082;-57
2023/02/07 06:11:22;;;;;;;22.08;12.88;;;;;;;-3.92;62.93;96042.03;4204939;28;20094;-57
2023/02/07 06:13:23;;;;;;;27.15;14.45;;;;;;;-3.80;62.46;96043.47;4214754;28;20525;-57
2023/02/07 06:15:25;;;;;;;22.85;15.05;;;;;;;-3.91;62.55;96046.28;4206740;28;20056;-59
2023/02/07 06:17:27;;;;;;;24.90;13.73;;;;;;;-4.48;63.40;96050.19;4209701;28;20082;-59
2023/02/07 06:19:29;;;;;;;24.65;13.77;;;;;;;-4.74;64.70;96056.72;4207744;28;20053;-58
2023/02/07 06:21:31;;;;;;;21.33;14.45;;;;;;;-4.65;64.64;96050.56;4208210;28;20040;-60
2023/02/07 06:23:48;;;;;;;23.23;14.32;;;;;;;-4.59;64.69;96060.66;4203206;28;20052;-58
2023/02/07 06:25:49;;;;;;;24.98;14.55;;;;;;;-4.36;64.52;96054.19;4201583;28;20053;-55
2023/02/07 06:27:51;;;;;;;24.33;14.88;;;;;;;-4.68;63.56;96066.00;4212454;28;20052;-56
2023/02/07 06:29:52;;;;;;;28.30;16.60;;;;;;;-4.75;64.48;96056.78;4214121;28;20334;-57
2023/02/07 06:31:54;;;;;;;21.70;14.35;;;;;;;-4.60;64.45;96056.44;4214371;28;20040;-61
2023/02/07 06:33:56;;;;;;;22.05;15.25;;;;;;;-4.37;64.25;96065.28;4214470;28;20079;-57
2023/02/07 06:35:58;;;;;;;25.00;15.77;;;;;;;-4.31;63.50;96062.59;4201222;28;20056;-55
2023/02/07 06:37:59;;;;;;;26.08;14.75;;;;;;;-4.63;63.51;96076.94;4214751;28;20044;-56
2023/02/07 06:40:02;;;;;;;28.88;17.60;;;;;;;-4.69;63.75;96074.53;4214197;28;20052;-55
2023/02/07 06:42:04;;;;;;;27.95;16.42;;;;;;;-4.61;63.42;96074.38;4213241;28;20044;-60
2023/02/07 06:44:06;;;;;;;22.45;14.02;;;;;;;-4.64;63.99;96071.91;4213677;28;20101;-59
2023/02/07 06:46:08;;;;;;;23.70;15.07;;;;;;;-4.45;64.11;96079.97;4214232;28;20067;-57
2023/02/07 06:48:10;;;;;;;26.27;15.32;;;;;;;-4.26;63.30;96081.22;4214049;28;20058;-56
2023/02/07 06:50:12;;;;;;;25.27;14.73;;;;;;;-3.98;62.57;96072.91;4212910;28;20044;-59
2023/02/07 06:52:13;;;;;;;25.45;15.05;;;;;;;-3.80;61.84;96077.56;4213503;28;20123;-57
2023/02/07 06:54:15;;;;;;;22.17;14.48;;;;;;;-3.66;61.22;96076.38;4214023;28;20442;-56
2023/02/07 06:56:17;;;;;;;22.80;13.60;;;;;;;-3.54;60.62;96084.59;4211821;28;20048;-57
2023/02/07 06:58:19;;;;;;;20.00;13.98;;;;;;;-3.45;59.54;96077.53;4212603;28;20070;-55
2023/02/07 07:00:22;;;;;;;20.83;11.95;;;;;;;-3.39;60.30;96075.66;4212899;28;20273;-56
2023/02/07 07:02:23;;;;;;;24.45;12.93;;;;;;;-3.27;59.87;96076.19;4214390;28;20058;-57
2023/02/07 07:04:26;;;;;;;20.00;11.82;;;;;;;-3.14;59.07;96068.16;4200885;28;20113;-56
2023/02/07 07:06:28;;;;;;;24.63;13.02;;;;;;;-3.02;58.83;96072.09;4203504;28;20109;-56
2023/02/07 07:08:30;;;;;;;20.50;13.00;;;;;;;-3.59;59.57;96080.44;4213702;28;20079;-56
2023/02/07 07:10:32;;;;;;;21.88;12.05;;;;;;;-3.51;59.55;96081.09;4211811;28;20129;-59
2023/02/07 07:12:33;;;;;;;20.83;12.55;;;;;;;-3.42;59.89;96073.19;4201167;28;20048;-59
2023/02/07 07:14:35;;;;;;;19.40;11.70;;;;;;;-3.64;59.87;96075.44;4213608;28;20052;-57
2023/02/07 07:16:37;;;;;;;24.15;12.80;;;;;;;-4.19;62.17;96085.34;4214034;28;20048;-59
2023/02/07 07:18:39;;;;;;;25.20;14.35;;;;;;;-4.31;63.15;96083.06;4204294;28;20056;-57
2023/02/07 07:20:41;;;;;;;21.20;12.75;;;;;;;-4.47;63.89;96086.84;4213056;28;20577;-54
2023/02/07 07:22:43;;;;;;;20.95;12.98;;;;;;;-4.53;63.71;96091.22;4213222;28;20048;-60
2023/02/07 07:24:45;;;;;;;22.40;12.57;;;;;;;-4.43;64.28;96088.44;4203115;28;20594;-56
2023/02/07 07:26:47;;;;;;;21.30;13.70;;;;;;;-4.09;63.95;96082.56;4212184;28;20044;-60
2023/02/07 07:28:50;;;;;;;22.10;14.15;;;;;;;-3.75;63.09;96078.28;4203793;28;20064;-59
2023/02/07 07:30:52;;;;;;;23.13;13.00;;;;;;;-3.43;62.04;96083.47;4197071;28;20063;-59
2023/02/07 07:32:54;;;;;;;20.30;12.50;;;;;;;-3.25;60.75;96074.44;4209706;28;20127;-58
2023/02/07 07:34:56;;;;;;;34.92;17.23;;;;;;;-3.16;59.87;96076.75;4204241;28;20047;-55
2023/02/07 07:36:57;;;;;;;23.92;13.63;;;;;;;-3.50;60.85;96082.78;4213213;28;20044;-56
2023/02/07 07:38:59;;;;;;;27.65;15.63;;;;;;;-3.69;61.93;96079.03;4199057;28;20045;-58
2023/02/07 07:41:01;;;;;;;24.60;14.38;;;;;;;-3.70;62.37;96075.59;4199770;28;20485;-54
2023/02/07 07:43:02;;;;;;;22.48;13.10;;;;;;;-3.97;63.34;96072.88;4212592;28;20536;-61
2023/02/07 07:45:04;;;;;;;23.42;14.98;;;;;;;-3.83;63.17;96079.38;4212731;28;20387;-56
2023/02/07 07:47:06;;;;;;;19.63;12.40;;;;;;;-3.60;62.20;96074.50;4211942;28;20079;-58
2023/02/07 07:49:08;;;;;;;24.88;14.20;;;;;;;-3.54;61.62;96070.94;4213208;28;20101;-56
2023/02/07 07:51:09;;;;;;;30.05;16.67;;;;;;;-3.67;62.43;96072.16;4211876;28;20123;-58
2023/02/07 07:53:11;;;;;;;24.33;14.35;;;;;;;-3.69;62.60;96071.34;4212271;28;20091;-57
2023/02/07 07:55:14;;;;;;;26.73;14.35;;;;;;;-3.61;62.10;96069.44;4211123;28;20493;-54
2023/02/07 07:57:15;;;;;;;19.40;12.50;;;;;;;-3.27;61.52;96069.34;4211298;28;20048;-57
2023/02/07 07:59:18;;;;;;;19.65;12.30;;;;;;;-2.91;60.69;96071.78;4212382;28;20048;-56
2023/02/07 08:01:24;;;;;;;20.92;11.95;;;;;;;-2.64;60.01;96064.19;4211681;28;20082;-56
2023/02/07 08:03:26;;;;;;;14.82;10.27;;;;;;;-2.41;59.19;96064.31;4209104;28;20051;-57
2023/02/07 08:05:28;;;;;;;18.83;11.80;;;;;;;-2.35;58.05;96058.97;4199580;28;20454;-56
2023/02/07 08:07:29;;;;;;;18.30;11.48;;;;;;;-2.18;58.33;96071.28;4211829;28;20084;-56
2023/02/07 08:09:31;;;;;;;19.58;10.90;;;;;;;-2.05;57.22;96069.16;4211814;28;20135;-57
2023/02/07 08:11:33;;;;;;;19.38;12.18;;;;;;;-2.61;58.74;96070.03;4203576;28;20066;-57
2023/02/07 08:13:35;;;;;;;23.13;13.38;;;;;;;-2.76;59.37;96070.50;4204760;28;20048;-59
2023/02/07 08:15:36;;;;;;;24.08;11.98;;;;;;;-2.78;60.23;96072.25;4212512;28;20558;-57
2023/02/07 08:17:38;;;;;;;19.60;11.90;;;;;;;-2.38;59.81;96073.66;4209533;28;20213;-57
2023/02/07 08:19:40;;;;;;;20.15;11.07;;;;;;;-1.96;58.55;96066.31;4205423;28;20555;-57
2023/02/07 08:21:42;;;;;;;19.27;11.38;;;;;;;-1.65;57.53;96067.88;4203322;28;20048;-58
2023/02/07 08:23:45;;;;;;;23.02;11.48;;;;;;;-1.35;56.23;96066.00;4208216;28;20075;-56
2023/02/07 08:25:48;;;;;;;16.50;8.75;;;;;;;-1.27;55.06;96061.44;4210891;28;20149;-58
2023/02/07 08:27:50;;;;;;;17.67;10.25;;;;;;;-1.14;54.35;96066.09;4210754;28;20043;-55
2023/02/07 08:29:52;;;;;;;19.80;10.27;;;;;;;-1.26;54.62;96065.66;4201077;28;20066;-56
2023/02/07 08:31:54;;;;;;;20.63;11.10;;;;;;;-1.24;55.11;96065.63;4212288;28;20055;-56
2023/02/07 08:33:55;;;;;;;17.73;10.35;;;;;;;-1.19;54.99;96070.59;4212648;28;20132;-55
2023/02/07 08:35:59;;;;;;;21.88;10.05;;;;;;;-1.15;55.06;96061.88;4198796;28;20437;-57
2023/02/07 08:38:01;;;;;;;19.17;11.13;;;;;;;-1.13;54.89;96060.09;4206860;28;20123;-54
2023/02/07 08:40:04;;;;;;;17.52;10.48;;;;;;;-1.11;54.49;96055.72;4205452;28;20048;-55
2023/02/07 08:42:09;;;;;;;18.42;10.60;;;;;;;-1.04;54.55;96058.00;4210888;28;20048;-56
2023/02/07 08:44:11;;;;;;;19.90;10.43;;;;;;;-1.12;54.29;96069.47;4200373;28;20048;-57
2023/02/07 08:46:12;;;;;;;20.48;11.32;;;;;;;-1.27;54.67;96068.28;4212150;28;20075;-56
2023/02/07 08:48:14;;;;;;;23.30;13.55;;;;;;;-1.80;56.42;96073.53;4212616;28;20048;-56
2023/02/07 08:50:17;;;;;;;20.38;11.25;;;;;;;-2.16;57.49;96069.50;4212153;28;20087;-56
2023/02/07 08:52:19;;;;;;;17.35;10.88;;;;;;;-1.92;57.03;96064.47;4212132;28;20394;-58
2023/02/07 08:54:21;;;;;;;20.35;11.95;;;;;;;-1.59;56.42;96067.69;4212357;28;20055;-58
2023/02/07 08:56:22;;;;;;;16.20;10.88;;;;;;;-1.35;55.37;96070.31;4210838;28;20063;-57
2023/02/07 08:58:24;;;;;;;22.10;12.20;;;;;;;-1.37;55.40;96072.91;4212477;28;20070;-56
2023/02/07 09:00:26;;;;;;;19.42;10.68;;;;;;;-1.10;55.23;96067.69;4210971;28;20120;-54
2023/02/07 09:02:27;;;;;;;15.98;9.23;;;;;;;-1.74;54.94;96069.03;4211397;28;20051;-55
2023/02/07 09:04:29;;;;;;;19.98;9.55;;;;;;;-1.78;56.13;96074.31;4199700;28;20053;-55
2023/02/07 09:06:31;;;;;;;13.98;8.60;;;;;;;-1.55;55.81;96071.81;4201314;28;20048;-57
2023/02/07 09:08:32;;;;;;;15.02;8.63;;;;;;;-1.23;54.05;96072.41;4212105;28;20055;-58
2023/02/07 09:10:34;;;;;;;16.25;8.75;;;;;;;-0.97;53.66;96063.78;4196246;28;20927;-57
2023/02/07 09:12:36;;;;;;;13.73;8.63;;;;;;;-0.76;53.38;96063.91;4195779;28;20438;-58
2023/02/07 09:14:38;;;;;;;14.75;8.73;;;;;;;-0.52;52.36;96057.81;4201306;28;20094;-59
2023/02/07 09:16:40;;;;;;;13.55;8.65;;;;;;;-0.42;51.90;96066.03;4211255;28;20044;-59
2023/02/07 09:18:42;;;;;;;14.02;8.25;;;;;;;-0.49;51.58;96065.44;4208814;28;20059;-57
2023/02/07 09:20:44;;;;;;;14.57;9.00;;;;;;;-0.37;51.98;96064.09;4195636;28;20102;-57
2023/02/07 09:25:06;;;;;;;15.65;9.85;;;;;;;-0.18;51.56;96071.97;4211365;28;20086;-55
2023/02/07 09:27:08;;;;;;;14.50;9.13;;;;;;;-0.12;51.94;96063.16;4205557;28;20049;-56
2023/02/07 09:29:12;;;;;;;17.63;10.32;;;;;;;-0.21;51.49;96061.78;4208681;28;20084;-57
2023/02/07 09:31:17;;;;;;;17.02;10.88;;;;;;;-0.33;51.57;96063.09;4211894;28;20048;-55
2023/02/07 09:33:22;;;;;;;20.00;11.38;;;;;;;-0.59;51.93;96064.09;4207069;28;20040;-58
2023/02/07 09:35:23;;;;;;;20.30;10.98;;;;;;;-1.10;53.04;96068.53;4207731;28;20422;-56
2023/02/07 09:37:25;;;;;;;20.05;10.85;;;;;;;-1.61;54.05;96066.03;4203816;28;20452;-57
2023/02/07 09:39:27;;;;;;;22.00;12.77;;;;;;;-1.45;54.83;96069.75;4213100;28;20493;-59
2023/02/07 09:41:41;;;;;;;19.55;11.98;;;;;;;-1.06;54.76;96067.50;4201280;28;20120;-58
2023/02/07 09:43:55;;;;;;;21.10;12.93;;;;;;;-0.87;53.01;96064.28;4202687;28;20564;-55
2023/02/07 09:46:01;;;;;;;17.67;11.02;;;;;;;-1.37;54.07;96067.78;4202414;28;20044;-56
2023/02/07 09:48:13;;;;;;;16.23;10.05;;;;;;;-2.05;56.15;96061.47;4202070;28;20132;-56
2023/02/07 09:50:22;;;;;;;20.50;10.52;;;;;;;-2.06;56.22;96059.81;4200955;28;20060;-56
2023/02/07 09:52:42;;;;;;;18.80;10.60;;;;;;;-2.29;57.50;96056.22;4213122;28;20424;-60
2023/02/07 09:54:46;;;;;;;22.08;10.02;;;;;;;-1.98;55.78;96047.56;4200331;28;20063;-59
2023/02/07 09:56:50;;;;;;;14.82;9.18;;;;;;;-1.53;55.13;96048.63;4202332;28;20391;-57
2023/02/07 09:58:57;;;;;;;19.10;10.48;;;;;;;-1.18;54.60;96051.69;4211539;28;20043;-57
2023/02/07 10:01:15;;;;;;;16.98;10.20;;;;;;;-0.97;53.94;96042.34;4203298;28;20665;-57
2023/02/07 10:03:21;;;;;;;20.67;10.85;;;;;;;-0.80;53.77;96036.59;4206608;28;20045;-56
2023/02/07 10:05:36;;;;;;;21.23;10.57;;;;;;;-0.80;53.76;96037.44;4196630;28;20471;-59
2023/02/07 10:07:38;;;;;;;34.13;16.33;;;;;;;-1.15;55.18;96038.72;4197064;28;20110;-59
2023/02/07 10:09:42;;;;;;;18.60;11.40;;;;;;;-1.94;56.56;96038.00;4205219;28;20048;-56
2023/02/07 10:12:17;;;;;;;27.95;13.35;;;;;;;-2.02;58.02;96043.41;4213339;28;20055;-57
2023/02/07 10:14:49;;;;;;;17.98;10.20;;;;;;;-1.90;57.52;96040.41;4204066;28;20466;-58
2023/02/07 10:17:10;;;;;;;20.23;11.82;;;;;;;-1.86;57.69;96033.47;4214656;28;20051;-56
2023/02/07 10:19:34;;;;;;;19.98;11.57;;;;;;;-1.80;57.54;96033.25;4214656;28;20093;-59
2023/02/07 10:21:54;;;;;;;21.20;12.02;;;;;;;-2.32;58.03;96020.41;4201638;28;20129;-58
2023/02/07 10:24:07;;;;;;;23.10;12.13;;;;;;;-2.28;59.38;96015.97;4204477;28;20044;-59
2023/02/07 10:26:20;;;;;;;21.95;12.10;;;;;;;-1.99;58.44;96021.91;4213113;28;20050;-58
2023/02/07 10:28:43;;;;;;;19.60;11.45;;;;;;;-1.66;57.60;96007.09;4213309;28;20136;-59
2023/02/07 10:30:57;;;;;;;20.67;11.85;;;;;;;-1.37;56.79;96015.53;4211513;28;20056;-59
2023/02/07 10:33:04;;;;;;;19.90;10.98;;;;;;;-1.37;55.99;96012.97;4211630;28;20123;-58
2023/02/07 10:35:31;;;;;;;20.38;11.13;;;;;;;-1.24;56.13;96011.63;4209812;28;20417;-54
2023/02/07 10:37:37;;;;;;;16.95;10.23;;;;;;;-1.19;55.37;96009.72;4209526;28;20126;-56
2023/02/07 10:39:42;;;;;;;15.45;9.65;;;;;;;-0.97;54.73;96009.75;4210605;28;20048;-55
2023/02/07 10:41:44;;;;;;;17.83;10.88;;;;;;;-0.81;54.66;96004.88;4207601;28;20125;-55
2023/02/07 10:43:46;;;;;;;19.10;11.77;;;;;;;-0.95;55.56;95997.66;4209840;28;20052;-59
2023/02/07 10:45:48;;;;;;;18.48;11.75;;;;;;;-0.78;54.75;95999.63;4206544;28;20102;-65